ADDS METAR Data INFO
IDs: Format: Raw Decoded Include TAF

Data at: 0251 UTC 21 Jan 2018

KOXC 210151Z 33003KT 10SM CLR 03/M03 A2997 RMK AO2 SLP167 T00281033
KOXC 210051Z 25003KT 10SM CLR 04/M03 A2995 RMK AO2 SLP162 T00391033
KOXC 202351Z 26003KT 10SM CLR 04/M03 A2993 RMK AO2 SLP154 T00441033 10072 20039 53031
KOXC 202251Z 23004KT 10SM CLR 04/M03 A2989 RMK AO2 SLP142 T00441033
KOXC 202151Z 24004KT 10SM CLR 06/M03 A2986 RMK AO2 SLP131 T00561033
KOXC 202051Z 26004KT 10SM CLR 07/M03 A2984 RMK AO2 SLP122 T00671033 53018
KOXC 201951Z 25005KT 10SM CLR 07/M03 A2981 RMK AO2 SLP112 T00671033
KOXC 201851Z 27008KT 10SM CLR 06/M04 A2980 RMK AO2 SLP109 T00611039
KOXC 201751Z COR 25006G15KT 10SM CLR 06/M04 A2978 RMK AO2 SLP105 T00561044 10056 21033 58009
KOXC 201651Z 26009G18KT 10SM CLR 06/M04 A2979 RMK AO2 SLP107 T00561044
KOXC 201551Z 27009G17KT 10SM CLR 04/M04 A2980 RMK AO2 SLP112 T00441044
KOXC 201451Z 26006G17KT 10SM CLR 04/M05 A2981 RMK AO2 SLP114 T00391050 53006
KOXC 201351Z 26009KT 10SM CLR 02/M06 A2980 RMK AO2 SLP111 T00171056
KOXC 201251Z 26006KT 10SM CLR M02/M06 A2979 RMK AO2 SLP111 T10221061
KOXC 201151Z 22004KT 10SM CLR M02/M07 A2979 RMK AO2 SLP109 T10221067 11017 21044 55016
KOXC 201051Z AUTO 21004KT 10SM CLR M02/M07 A2978 RMK AO2 SLP107 T10221067 FZRANO
KOXC 200951Z AUTO 20004KT 10SM CLR M02/M07 A2981 RMK AO2 SLP114 T10221067 FZRANO
KOXC 200851Z AUTO 25005KT 10SM CLR M02/M07 A2984 RMK AO2 SLP125 T10221067 56010 FZRANO
KOXC 200751Z AUTO 22007KT 10SM CLR M02/M07 A2984 RMK AO2 SLP126 T10221067 FZRANO
KOXC 200651Z AUTO 22005KT 10SM CLR M04/M08 A2985 RMK AO2 SLP128 T10391078 FZRANO
KOXC 200551Z AUTO 23003KT 10SM CLR M04/M08 A2987 RMK AO2 SLP136 T10441078 11039 21056 58020 FZRANO
KOXC 200451Z AUTO 20003KT 10SM CLR M04/M08 A2989 RMK AO2 SLP143 T10441083 400061111 FZRANO
KOXC 200351Z AUTO 23004KT 10SM CLR M04/M08 A2991 RMK AO2 SLP151 T10391083 FZRANO
KOXC 200251Z AUTO 21003KT 10SM CLR M04/M08 A2993 RMK AO2 SLP157 T10441083 58006 FZRANO
KOXC 200151Z 23003KT 10SM CLR M05/M08 A2995 RMK AO2 SLP167 T10501083
KOXC 200051Z 20003KT 10SM CLR M06/M09 A2995 RMK AO2 SLP167 T10561094
KOXC 192351Z 18003KT 10SM CLR M05/M09 A2995 RMK AO2 SLP165 T10501094 10006 21050 53003
KOXC 192251Z 25003KT 10SM CLR M04/M08 A2994 RMK AO2 SLP164 T10391083
KOXC 192151Z VRB03KT 10SM CLR M02/M08 A2995 RMK AO2 SLP165 T10171083
KOXC 192051Z 30004KT 10SM CLR 00/M07 A2994 RMK AO2 SLP162 T00001072 55002
KOXC 191951Z VRB04KT 10SM CLR 01/M09 A2993 RMK AO2 SLP158 T00061089
KOXC 191851Z 30006KT 10SM CLR 00/M09 A2993 RMK AO2 SLP158 T00001089
KOXC 191751Z 26007G15KT 10SM CLR M01/M09 A2995 RMK AO2 SLP164 T10111089 11011 21100 58023
KOXC 191651Z VRB03KT 10SM CLR M02/M09 A2997 RMK AO2 SLP173 T10221089
KOXC 191551Z 26007KT 10SM CLR M04/M10 A3000 RMK AO2 SLP185 T10441100